Airfield :
LOGIN :

Register | Disclaimer

   EN    FR    IT 

 










Legend :    VFR   Marginal VFR   IFR   Intensive IFR   Very Intensive IFR
Visi :
Ceiling :
>= 8 km
>= 3000ft
5 to 8 km
1000 to 3000 ft
1500m to 5 km
500 to 1000 ft
800 to 1500m
200 to 500 ft
< 800m
< 200 ft
Symbols :   Thunderstorms  Fog  Heavy snow  Heavy precipitations  Wind > 20 kt
SIGMETs :     Misc.  Thunderstorms  Icing  Turbulence  Mountain Waves  Volcanic Ashes







- Airport Elevation : 267 ft


EGDR - Culdrose Navy

CURRENT METAR :
  • 201650Z 04010KT 9999 FEW020 SCT028 04/M00 Q1005 BLU NOSIG

EXPIRED METARs :
  • 201620Z 05010KT 9999 FEW020 SCT028 06/M00 Q1005 BLU NOSIG
  • 201550Z 03007KT 9999 FEW020 SCT030 06/00 Q1005 BLU NOSIG
  • 201522Z 04006KT 9999 FEW020 SCT030 06/01 Q1005 BLU NOSIG
  • 201450Z 04011KT 9999 FEW020 SCT030 05/00 Q1005 BLU NOSIG
  • 201422Z 05014KT 9999 FEW022 SCT030 06/00 Q1005 BLU NOSIG

TAF TAF EGDR
Valid from the 20 at 15:00 until the 21 at 00:00 UTC


201338Z 2015/2024 03013KT 9999 FEW025
PROB40
TEMPO 2017/2024 7000 -SHRA SCT020TCU
No reported NOTAMs for that airfield.
2 SIGMETs reported for the London FIR (EGTT) :
 
Severe mountain waves
EGTT SIGMET 03 VALID 201700/202100 EGRR
EGTT LONDON FIR SEV MTW FCST WI N5500 W00220 - N5322 W00134 - N5158 W00304 - N5149 W00510 - N5500 W00447 - N5500 W00220 FL030/120 MOV N 10KT NC=
Severe mountain waves
EGTT SIGMET 02 VALID 201300/201700 EGRR
EGTT LONDON FIR SEV MTW FCST WI N5322 W00134 - N5149 W00328 - N5130 W00504 - N5500 W00447 - N5500 W00220 - N5322 W00134 FL030/120 STNR NC=



MET'MAP, your aeronautical weather chart ! - Copyright ORBIFLY December 2007 - Disclaimer

ORBIFLY MET'MAP TEAM :

Programming & Development : Alexandra Zaïnal
Concept & Development : Baudouin d'Aumeries
Co-Development & Prog : Marc-Olivier Méhu
Technical & hardware support : Manuel Goepfert

Contact : metmap@orbifly.com




SOURCES & CREDITS :

   NOAA